sensor_id;sensor_type;location;lat;lon;timestamp;temperature;humidity
17728;DHT22;8984;49.268;12.302;2024-03-07T00:00:11;5.80;99.90
17728;DHT22;8984;49.268;12.302;2024-03-07T00:02:44;5.70;99.90
17728;DHT22;8984;49.268;12.302;2024-03-07T00:05:15;5.60;99.90
17728;DHT22;8984;49.268;12.302;2024-03-07T00:07:50;5.60;99.90
17728;DHT22;8984;49.268;12.302;2024-03-07T00:10:31;5.70;99.90
17728;DHT22;8984;49.268;12.302;2024-03-07T00:13:00;5.70;99.90
17728;DHT22;8984;49.268;12.302;2024-03-07T00:15:30;5.80;99.90
17728;DHT22;8984;49.268;12.302;2024-03-07T00:18:02;5.80;99.90
17728;DHT22;8984;49.268;12.302;2024-03-07T00:20:32;5.80;99.90
17728;DHT22;8984;49.268;12.302;2024-03-07T00:23:01;5.60;99.90
17728;DHT22;8984;49.268;12.302;2024-03-07T00:25:44;5.50;99.90
17728;DHT22;8984;49.268;12.302;2024-03-07T00:28:13;5.60;99.90
17728;DHT22;8984;49.268;12.302;2024-03-07T00:30:43;5.50;99.90
17728;DHT22;8984;49.268;12.302;2024-03-07T00:33:16;5.60;99.90
17728;DHT22;8984;49.268;12.302;2024-03-07T00:35:55;5.40;99.90
17728;DHT22;8984;49.268;12.302;2024-03-07T00:38:26;5.40;99.90
17728;DHT22;8984;49.268;12.302;2024-03-07T00:41:21;5.40;99.90
17728;DHT22;8984;49.268;12.302;2024-03-07T00:43:53;5.50;99.90
17728;DHT22;8984;49.268;12.302;2024-03-07T00:46:21;5.50;99.90
17728;DHT22;8984;49.268;12.302;2024-03-07T00:49:02;5.20;99.90
17728;DHT22;8984;49.268;12.302;2024-03-07T00:51:30;5.20;99.90
17728;DHT22;8984;49.268;12.302;2024-03-07T00:54:03;5.00;99.90
17728;DHT22;8984;49.268;12.302;2024-03-07T00:57:04;4.80;99.90
17728;DHT22;8984;49.268;12.302;2024-03-07T00:59:37;4.90;99.90
17728;DHT22;8984;49.268;12.302;2024-03-07T01:02:14;4.90;99.90
17728;DHT22;8984;49.268;12.302;2024-03-07T01:04:44;5.00;99.90
17728;DHT22;8984;49.268;12.302;2024-03-07T01:07:12;5.00;99.90
17728;DHT22;8984;49.268;12.302;2024-03-07T01:09:47;4.90;99.90
17728;DHT22;8984;49.268;12.302;2024-03-07T01:12:19;4.80;99.90
17728;DHT22;8984;49.268;12.302;2024-03-07T01:15:00;4.80;99.90
17728;DHT22;8984;49.268;12.302;2024-03-07T01:17:32;4.80;99.90
17728;DHT22;8984;49.268;12.302;2024-03-07T01:20:01;4.60;99.90
17728;DHT22;8984;49.268;12.302;2024-03-07T01:22:29;4.70;99.90
17728;DHT22;8984;49.268;12.302;2024-03-07T01:25:05;4.70;99.90
17728;DHT22;8984;49.268;12.302;2024-03-07T01:27:39;4.70;99.90
17728;DHT22;8984;49.268;12.302;2024-03-07T01:30:14;4.60;99.90
17728;DHT22;8984;49.268;12.302;2024-03-07T01:32:44;4.60;99.90
17728;DHT22;8984;49.268;12.302;2024-03-07T01:35:13;4.60;99.90
17728;DHT22;8984;49.268;12.302;2024-03-07T01:37:44;4.70;99.90
17728;DHT22;8984;49.268;12.302;2024-03-07T01:40:22;4.70;99.90
17728;DHT22;8984;49.268;12.302;2024-03-07T01:43:01;4.70;99.90
17728;DHT22;8984;49.268;12.302;2024-03-07T01:45:32;4.70;99.90
17728;DHT22;8984;49.268;12.302;2024-03-07T01:48:04;4.70;99.90
17728;DHT22;8984;49.268;12.302;2024-03-07T01:50:41;4.70;99.90
17728;DHT22;8984;49.268;12.302;2024-03-07T01:53:12;4.60;99.90
17728;DHT22;8984;49.268;12.302;2024-03-07T01:55:43;4.60;99.90
17728;DHT22;8984;49.268;12.302;2024-03-07T01:58:27;4.60;99.90
17728;DHT22;8984;49.268;12.302;2024-03-07T02:00:56;4.60;99.90
17728;DHT22;8984;49.268;12.302;2024-03-07T02:03:32;4.50;99.90
17728;DHT22;8984;49.268;12.302;2024-03-07T02:06:16;4.50;99.90
17728;DHT22;8984;49.268;12.302;2024-03-07T02:08:45;4.70;99.90
17728;DHT22;8984;49.268;12.302;2024-03-07T02:11:13;4.60;99.90
17728;DHT22;8984;49.268;12.302;2024-03-07T02:13:53;4.40;99.90
17728;DHT22;8984;49.268;12.302;2024-03-07T02:16:25;4.40;99.90
17728;DHT22;8984;49.268;12.302;2024-03-07T02:18:54;4.40;99.90
17728;DHT22;8984;49.268;12.302;2024-03-07T02:21:24;4.40;99.90
17728;DHT22;8984;49.268;12.302;2024-03-07T02:23:53;4.40;99.90
17728;DHT22;8984;49.268;12.302;2024-03-07T02:26:22;4.30;99.90
17728;DHT22;8984;49.268;12.302;2024-03-07T02:29:13;4.30;99.90
17728;DHT22;8984;49.268;12.302;2024-03-07T02:31:41;4.30;99.90
17728;DHT22;8984;49.268;12.302;2024-03-07T02:34:11;4.30;99.90
17728;DHT22;8984;49.268;12.302;2024-03-07T02:36:43;4.20;99.90
17728;DHT22;8984;49.268;12.302;2024-03-07T02:42:10;4.00;99.90
17728;DHT22;8984;49.268;12.302;2024-03-07T02:44:39;4.00;99.90
17728;DHT22;8984;49.268;12.302;2024-03-07T02:47:11;3.90;99.90
17728;DHT22;8984;49.268;12.302;2024-03-07T02:49:40;3.90;99.90
17728;DHT22;8984;49.268;12.302;2024-03-07T02:52:16;3.90;99.90
17728;DHT22;8984;49.268;12.302;2024-03-07T02:54:48;3.90;99.90
17728;DHT22;8984;49.268;12.302;2024-03-07T02:57:19;3.90;99.90
17728;DHT22;8984;49.268;12.302;2024-03-07T02:59:47;3.80;99.90
17728;DHT22;8984;49.268;12.302;2024-03-07T03:02:27;3.80;99.90
17728;DHT22;8984;49.268;12.302;2024-03-07T03:04:56;3.80;99.90
17728;DHT22;8984;49.268;12.302;2024-03-07T03:07:39;3.70;99.90
17728;DHT22;8984;49.268;12.302;2024-03-07T03:10:08;3.70;99.90
17728;DHT22;8984;49.268;12.302;2024-03-07T03:12:37;3.70;99.90
17728;DHT22;8984;49.268;12.302;2024-03-07T03:15:06;3.50;99.90
17728;DHT22;8984;49.268;12.302;2024-03-07T03:17:36;3.60;99.90
17728;DHT22;8984;49.268;12.302;2024-03-07T03:20:05;3.60;99.90
17728;DHT22;8984;49.268;12.302;2024-03-07T03:22:52;3.60;99.90
17728;DHT22;8984;49.268;12.302;2024-03-07T03:25:23;3.60;99.90
17728;DHT22;8984;49.268;12.302;2024-03-07T03:27:53;3.60;99.90
17728;DHT22;8984;49.268;12.302;2024-03-07T03:30:34;3.60;99.90
17728;DHT22;8984;49.268;12.302;2024-03-07T03:33:29;3.50;99.90
17728;DHT22;8984;49.268;12.302;2024-03-07T03:36:15;3.50;99.90
17728;DHT22;8984;49.268;12.302;2024-03-07T03:39:14;3.50;99.90
17728;DHT22;8984;49.268;12.302;2024-03-07T03:41:41;3.50;99.90
17728;DHT22;8984;49.268;12.302;2024-03-07T03:44:15;3.50;99.90
17728;DHT22;8984;49.268;12.302;2024-03-07T03:46:45;3.40;99.90
17728;DHT22;8984;49.268;12.302;2024-03-07T03:49:31;3.40;99.90
17728;DHT22;8984;49.268;12.302;2024-03-07T03:51:59;3.40;99.90
17728;DHT22;8984;49.268;12.302;2024-03-07T03:54:35;3.40;99.90
17728;DHT22;8984;49.268;12.302;2024-03-07T03:57:07;3.30;99.90
17728;DHT22;8984;49.268;12.302;2024-03-07T03:59:37;3.30;99.90
17728;DHT22;8984;49.268;12.302;2024-03-07T04:02:18;3.30;99.90
17728;DHT22;8984;49.268;12.302;2024-03-07T04:04:53;3.40;99.90
17728;DHT22;8984;49.268;12.302;2024-03-07T04:07:25;3.40;99.90
17728;DHT22;8984;49.268;12.302;2024-03-07T04:09:59;3.50;99.90
17728;DHT22;8984;49.268;12.302;2024-03-07T04:12:31;3.40;99.90
17728;DHT22;8984;49.268;12.302;2024-03-07T04:15:01;3.40;99.90
17728;DHT22;8984;49.268;12.302;2024-03-07T04:17:32;3.50;99.90
17728;DHT22;8984;49.268;12.302;2024-03-07T04:20:01;3.50;99.90
17728;DHT22;8984;49.268;12.302;2024-03-07T04:22:31;3.60;99.90
17728;DHT22;8984;49.268;12.302;2024-03-07T04:25:04;3.60;99.90
17728;DHT22;8984;49.268;12.302;2024-03-07T04:27:32;3.70;99.90
17728;DHT22;8984;49.268;12.302;2024-03-07T04:30:05;3.70;99.90
17728;DHT22;8984;49.268;12.302;2024-03-07T04:32:37;3.70;99.90
17728;DHT22;8984;49.268;12.302;2024-03-07T04:35:06;3.70;99.90
17728;DHT22;8984;49.268;12.302;2024-03-07T04:37:37;3.70;99.90
17728;DHT22;8984;49.268;12.302;2024-03-07T04:40:10;3.80;99.90
17728;DHT22;8984;49.268;12.302;2024-03-07T04:42:47;3.80;99.90
17728;DHT22;8984;49.268;12.302;2024-03-07T04:45:15;3.90;99.90
17728;DHT22;8984;49.268;12.302;2024-03-07T04:48:09;3.90;99.90
17728;DHT22;8984;49.268;12.302;2024-03-07T04:50:52;3.90;99.90
17728;DHT22;8984;49.268;12.302;2024-03-07T04:53:46;3.90;99.90
17728;DHT22;8984;49.268;12.302;2024-03-07T04:56:16;4.00;99.90
17728;DHT22;8984;49.268;12.302;2024-03-07T04:58:48;4.10;99.90
17728;DHT22;8984;49.268;12.302;2024-03-07T05:01:29;4.00;99.90
17728;DHT22;8984;49.268;12.302;2024-03-07T05:04:11;4.10;99.90
17728;DHT22;8984;49.268;12.302;2024-03-07T05:06:41;4.10;99.90
17728;DHT22;8984;49.268;12.302;2024-03-07T05:09:13;4.20;99.90
17728;DHT22;8984;49.268;12.302;2024-03-07T05:11:51;4.20;99.90
17728;DHT22;8984;49.268;12.302;2024-03-07T05:14:19;4.30;99.90
17728;DHT22;8984;49.268;12.302;2024-03-07T05:16:48;4.40;99.90
17728;DHT22;8984;49.268;12.302;2024-03-07T05:19:53;4.60;99.90
17728;DHT22;8984;49.268;12.302;2024-03-07T05:22:24;4.50;99.90
17728;DHT22;8984;49.268;12.302;2024-03-07T05:24:55;4.50;99.90
17728;DHT22;8984;49.268;12.302;2024-03-07T05:27:35;4.50;99.90
17728;DHT22;8984;49.268;12.302;2024-03-07T05:30:17;4.50;99.90
17728;DHT22;8984;49.268;12.302;2024-03-07T05:32:45;4.60;99.90
17728;DHT22;8984;49.268;12.302;2024-03-07T05:35:19;4.60;99.90
17728;DHT22;8984;49.268;12.302;2024-03-07T05:37:48;4.70;99.90
17728;DHT22;8984;49.268;12.302;2024-03-07T05:40:17;4.70;99.90
17728;DHT22;8984;49.268;12.302;2024-03-07T05:42:47;4.70;99.90
17728;DHT22;8984;49.268;12.302;2024-03-07T05:45:18;4.50;99.90
17728;DHT22;8984;49.268;12.302;2024-03-07T05:47:46;4.60;99.90
17728;DHT22;8984;49.268;12.302;2024-03-07T05:50:20;4.70;99.90
17728;DHT22;8984;49.268;12.302;2024-03-07T05:52:49;4.80;99.90
17728;DHT22;8984;49.268;12.302;2024-03-07T05:55:23;4.80;99.90
17728;DHT22;8984;49.268;12.302;2024-03-07T05:58:02;4.90;99.90
17728;DHT22;8984;49.268;12.302;2024-03-07T06:00:32;5.00;99.90
17728;DHT22;8984;49.268;12.302;2024-03-07T06:03:01;5.00;99.90
17728;DHT22;8984;49.268;12.302;2024-03-07T06:05:36;4.90;99.90
17728;DHT22;8984;49.268;12.302;2024-03-07T06:08:10;5.00;99.90
17728;DHT22;8984;49.268;12.302;2024-03-07T06:10:49;5.00;99.90
17728;DHT22;8984;49.268;12.302;2024-03-07T06:13:24;5.00;99.90
17728;DHT22;8984;49.268;12.302;2024-03-07T06:15:52;5.00;99.90
17728;DHT22;8984;49.268;12.302;2024-03-07T06:18:19;5.00;99.90
17728;DHT22;8984;49.268;12.302;2024-03-07T06:20:47;5.10;99.90
17728;DHT22;8984;49.268;12.302;2024-03-07T06:23:18;5.00;99.90
17728;DHT22;8984;49.268;12.302;2024-03-07T06:25:48;5.10;99.90
17728;DHT22;8984;49.268;12.302;2024-03-07T06:28:27;5.20;99.90
17728;DHT22;8984;49.268;12.302;2024-03-07T06:31:02;5.10;99.90
17728;DHT22;8984;49.268;12.302;2024-03-07T06:33:38;5.10;99.90
17728;DHT22;8984;49.268;12.302;2024-03-07T06:36:07;5.10;99.90
17728;DHT22;8984;49.268;12.302;2024-03-07T06:38:35;5.10;99.90
17728;DHT22;8984;49.268;12.302;2024-03-07T06:41:07;5.10;99.90
17728;DHT22;8984;49.268;12.302;2024-03-07T06:43:53;5.10;99.90
17728;DHT22;8984;49.268;12.302;2024-03-07T06:46:30;5.10;99.90
17728;DHT22;8984;49.268;12.302;2024-03-07T06:49:03;5.10;99.90
17728;DHT22;8984;49.268;12.302;2024-03-07T06:51:36;5.00;99.90
17728;DHT22;8984;49.268;12.302;2024-03-07T06:54:05;5.00;99.90
17728;DHT22;8984;49.268;12.302;2024-03-07T06:56:37;5.10;99.90
17728;DHT22;8984;49.268;12.302;2024-03-07T06:59:13;5.10;99.90
17728;DHT22;8984;49.268;12.302;2024-03-07T07:04:28;5.20;99.90
17728;DHT22;8984;49.268;12.302;2024-03-07T07:07:07;5.20;99.90
17728;DHT22;8984;49.268;12.302;2024-03-07T07:09:46;5.20;99.90
17728;DHT22;8984;49.268;12.302;2024-03-07T07:12:18;5.30;99.90
17728;DHT22;8984;49.268;12.302;2024-03-07T07:15:19;5.40;99.90
17728;DHT22;8984;49.268;12.302;2024-03-07T07:17:47;5.40;99.90
17728;DHT22;8984;49.268;12.302;2024-03-07T07:20:14;5.50;99.90
17728;DHT22;8984;49.268;12.302;2024-03-07T07:22:42;5.70;99.90
17728;DHT22;8984;49.268;12.302;2024-03-07T07:25:11;5.60;99.90
17728;DHT22;8984;49.268;12.302;2024-03-07T07:27:40;5.90;99.90
17728;DHT22;8984;49.268;12.302;2024-03-07T07:30:09;5.80;99.90
17728;DHT22;8984;49.268;12.302;2024-03-07T07:32:38;5.80;99.90
17728;DHT22;8984;49.268;12.302;2024-03-07T07:35:05;5.90;99.90
17728;DHT22;8984;49.268;12.302;2024-03-07T07:37:35;6.20;99.90
17728;DHT22;8984;49.268;12.302;2024-03-07T07:40:02;6.40;99.90
17728;DHT22;8984;49.268;12.302;2024-03-07T07:42:36;6.60;99.90
17728;DHT22;8984;49.268;12.302;2024-03-07T07:45:06;6.70;99.90
17728;DHT22;8984;49.268;12.302;2024-03-07T07:47:38;6.60;99.90
17728;DHT22;8984;49.268;12.302;2024-03-07T07:50:07;6.40;99.90
17728;DHT22;8984;49.268;12.302;2024-03-07T07:52:40;6.30;99.90
17728;DHT22;8984;49.268;12.302;2024-03-07T07:55:07;6.30;99.90
17728;DHT22;8984;49.268;12.302;2024-03-07T07:57:41;6.40;99.90
17728;DHT22;8984;49.268;12.302;2024-03-07T08:00:09;6.40;99.90
17728;DHT22;8984;49.268;12.302;2024-03-07T08:02:37;6.40;99.90
17728;DHT22;8984;49.268;12.302;2024-03-07T08:05:04;6.40;99.90
17728;DHT22;8984;49.268;12.302;2024-03-07T08:07:31;6.40;99.90
17728;DHT22;8984;49.268;12.302;2024-03-07T08:09:58;6.40;99.90
17728;DHT22;8984;49.268;12.302;2024-03-07T08:12:25;6.60;99.90
17728;DHT22;8984;49.268;12.302;2024-03-07T08:14:52;6.50;99.90
17728;DHT22;8984;49.268;12.302;2024-03-07T08:17:18;6.60;99.90
17728;DHT22;8984;49.268;12.302;2024-03-07T08:19:48;6.70;99.90
17728;DHT22;8984;49.268;12.302;2024-03-07T08:22:16;6.70;99.90
17728;DHT22;8984;49.268;12.302;2024-03-07T08:24:44;6.70;99.90
17728;DHT22;8984;49.268;12.302;2024-03-07T08:27:12;6.60;99.90
17728;DHT22;8984;49.268;12.302;2024-03-07T08:29:38;6.70;99.90
17728;DHT22;8984;49.268;12.302;2024-03-07T08:32:07;6.80;99.90
17728;DHT22;8984;49.268;12.302;2024-03-07T08:34:33;6.70;99.90
17728;DHT22;8984;49.268;12.302;2024-03-07T08:37:02;6.80;99.90
17728;DHT22;8984;49.268;12.302;2024-03-07T08:39:30;6.90;99.90
17728;DHT22;8984;49.268;12.302;2024-03-07T08:41:57;6.80;99.90
17728;DHT22;8984;49.268;12.302;2024-03-07T08:44:24;6.90;99.90
17728;DHT22;8984;49.268;12.302;2024-03-07T08:46:51;7.00;99.90
17728;DHT22;8984;49.268;12.302;2024-03-07T08:49:20;6.80;99.90
17728;DHT22;8984;49.268;12.302;2024-03-07T08:51:46;6.90;99.90
17728;DHT22;8984;49.268;12.302;2024-03-07T08:54:14;7.00;99.90
17728;DHT22;8984;49.268;12.302;2024-03-07T08:56:41;7.00;99.90
17728;DHT22;8984;49.268;12.302;2024-03-07T08:59:08;7.10;99.90
17728;DHT22;8984;49.268;12.302;2024-03-07T09:01:41;7.30;99.90
17728;DHT22;8984;49.268;12.302;2024-03-07T09:04:09;7.20;99.90
17728;DHT22;8984;49.268;12.302;2024-03-07T09:06:37;7.20;99.90
17728;DHT22;8984;49.268;12.302;2024-03-07T09:09:04;7.50;99.90
17728;DHT22;8984;49.268;12.302;2024-03-07T09:11:35;7.60;99.90
17728;DHT22;8984;49.268;12.302;2024-03-07T09:14:03;7.60;99.90
17728;DHT22;8984;49.268;12.302;2024-03-07T09:16:34;7.70;99.90
17728;DHT22;8984;49.268;12.302;2024-03-07T09:19:01;7.40;99.90
17728;DHT22;8984;49.268;12.302;2024-03-07T09:21:28;7.60;99.90
17728;DHT22;8984;49.268;12.302;2024-03-07T09:23:55;7.80;99.90
17728;DHT22;8984;49.268;12.302;2024-03-07T09:26:22;7.90;99.90
17728;DHT22;8984;49.268;12.302;2024-03-07T09:28:50;7.90;99.90
17728;DHT22;8984;49.268;12.302;2024-03-07T09:31:17;7.90;99.90
17728;DHT22;8984;49.268;12.302;2024-03-07T09:33:44;7.80;99.90
17728;DHT22;8984;49.268;12.302;2024-03-07T09:36:11;7.90;99.90
17728;DHT22;8984;49.268;12.302;2024-03-07T09:38:38;8.10;99.90
17728;DHT22;8984;49.268;12.302;2024-03-07T09:41:06;8.20;99.90
17728;DHT22;8984;49.268;12.302;2024-03-07T09:43:33;8.30;99.90
17728;DHT22;8984;49.268;12.302;2024-03-07T09:46:03;8.30;99.90
17728;DHT22;8984;49.268;12.302;2024-03-07T09:48:30;8.30;99.90
17728;DHT22;8984;49.268;12.302;2024-03-07T09:50:58;8.20;99.90
17728;DHT22;8984;49.268;12.302;2024-03-07T09:53:27;8.20;99.90
17728;DHT22;8984;49.268;12.302;2024-03-07T09:55:54;8.00;99.90
17728;DHT22;8984;49.268;12.302;2024-03-07T09:58:21;8.00;99.90
17728;DHT22;8984;49.268;12.302;2024-03-07T10:00:49;8.30;99.90
17728;DHT22;8984;49.268;12.302;2024-03-07T10:03:20;8.40;99.90
17728;DHT22;8984;49.268;12.302;2024-03-07T10:05:49;8.40;99.90
17728;DHT22;8984;49.268;12.302;2024-03-07T10:08:18;8.50;99.90
17728;DHT22;8984;49.268;12.302;2024-03-07T10:10:45;8.50;99.90
17728;DHT22;8984;49.268;12.302;2024-03-07T10:13:13;8.40;99.90
17728;DHT22;8984;49.268;12.302;2024-03-07T10:15:39;8.40;99.90
17728;DHT22;8984;49.268;12.302;2024-03-07T10:18:08;8.50;99.90
17728;DHT22;8984;49.268;12.302;2024-03-07T10:20:37;8.50;99.90
17728;DHT22;8984;49.268;12.302;2024-03-07T10:23:08;8.50;99.90
17728;DHT22;8984;49.268;12.302;2024-03-07T10:25:36;8.60;99.90
17728;DHT22;8984;49.268;12.302;2024-03-07T10:28:17;8.70;99.90
17728;DHT22;8984;49.268;12.302;2024-03-07T10:30:49;8.80;99.90
17728;DHT22;8984;49.268;12.302;2024-03-07T10:33:27;8.70;99.90
17728;DHT22;8984;49.268;12.302;2024-03-07T10:36:00;8.70;99.90
17728;DHT22;8984;49.268;12.302;2024-03-07T10:38:28;8.70;99.90
17728;DHT22;8984;49.268;12.302;2024-03-07T10:40:56;8.70;99.90
17728;DHT22;8984;49.268;12.302;2024-03-07T10:43:29;8.80;99.90
17728;DHT22;8984;49.268;12.302;2024-03-07T10:46:01;8.90;99.90
17728;DHT22;8984;49.268;12.302;2024-03-07T10:48:39;8.70;99.90
17728;DHT22;8984;49.268;12.302;2024-03-07T10:51:20;8.80;99.90
17728;DHT22;8984;49.268;12.302;2024-03-07T10:53:56;8.70;99.90
17728;DHT22;8984;49.268;12.302;2024-03-07T10:56:47;8.80;99.90
17728;DHT22;8984;49.268;12.302;2024-03-07T10:59:26;8.90;99.90
17728;DHT22;8984;49.268;12.302;2024-03-07T11:02:12;8.70;99.90
17728;DHT22;8984;49.268;12.302;2024-03-07T11:04:47;9.00;99.90
17728;DHT22;8984;49.268;12.302;2024-03-07T11:07:21;9.00;99.90
17728;DHT22;8984;49.268;12.302;2024-03-07T11:09:49;9.10;99.90
17728;DHT22;8984;49.268;12.302;2024-03-07T11:12:23;8.80;99.90
17728;DHT22;8984;49.268;12.302;2024-03-07T11:14:54;8.80;99.90
17728;DHT22;8984;49.268;12.302;2024-03-07T11:17:30;9.10;99.90
17728;DHT22;8984;49.268;12.302;2024-03-07T11:20:21;9.20;99.90
17728;DHT22;8984;49.268;12.302;2024-03-07T11:22:56;9.20;99.90
17728;DHT22;8984;49.268;12.302;2024-03-07T11:25:27;9.10;99.90
17728;DHT22;8984;49.268;12.302;2024-03-07T11:28:05;9.20;99.90
17728;DHT22;8984;49.268;12.302;2024-03-07T11:30:33;9.20;99.90
17728;DHT22;8984;49.268;12.302;2024-03-07T11:33:02;9.20;99.90
17728;DHT22;8984;49.268;12.302;2024-03-07T11:35:37;9.20;99.90
17728;DHT22;8984;49.268;12.302;2024-03-07T11:38:08;9.20;99.90
17728;DHT22;8984;49.268;12.302;2024-03-07T11:40:51;9.30;99.90
17728;DHT22;8984;49.268;12.302;2024-03-07T11:43:20;9.30;99.90
17728;DHT22;8984;49.268;12.302;2024-03-07T11:45:52;9.20;99.90
17728;DHT22;8984;49.268;12.302;2024-03-07T11:48:23;9.30;99.90
17728;DHT22;8984;49.268;12.302;2024-03-07T11:51:03;9.10;99.90
17728;DHT22;8984;49.268;12.302;2024-03-07T11:53:54;8.90;99.90
17728;DHT22;8984;49.268;12.302;2024-03-07T11:56:26;9.20;99.90
17728;DHT22;8984;49.268;12.302;2024-03-07T11:59:02;9.10;99.90
17728;DHT22;8984;49.268;12.302;2024-03-07T12:01:34;8.80;99.90
17728;DHT22;8984;49.268;12.302;2024-03-07T12:04:03;8.80;99.90
17728;DHT22;8984;49.268;12.302;2024-03-07T12:06:34;8.70;99.90
17728;DHT22;8984;49.268;12.302;2024-03-07T12:09:08;9.00;99.90
17728;DHT22;8984;49.268;12.302;2024-03-07T12:11:55;9.10;99.90
17728;DHT22;8984;49.268;12.302;2024-03-07T12:14:25;9.00;99.90
17728;DHT22;8984;49.268;12.302;2024-03-07T12:17:05;9.20;99.90
17728;DHT22;8984;49.268;12.302;2024-03-07T12:19:41;9.10;99.90
17728;DHT22;8984;49.268;12.302;2024-03-07T12:23:14;9.30;99.90
17728;DHT22;8984;49.268;12.302;2024-03-07T12:26:03;9.30;99.90
17728;DHT22;8984;49.268;12.302;2024-03-07T12:28:34;9.20;99.90
17728;DHT22;8984;49.268;12.302;2024-03-07T12:31:14;9.20;99.90
17728;DHT22;8984;49.268;12.302;2024-03-07T12:33:43;9.20;99.90
17728;DHT22;8984;49.268;12.302;2024-03-07T12:36:17;9.10;99.90
17728;DHT22;8984;49.268;12.302;2024-03-07T12:39:20;9.00;99.90
17728;DHT22;8984;49.268;12.302;2024-03-07T12:41:55;9.00;99.90
17728;DHT22;8984;49.268;12.302;2024-03-07T12:44:28;8.70;99.90
17728;DHT22;8984;49.268;12.302;2024-03-07T12:47:13;8.70;99.90
17728;DHT22;8984;49.268;12.302;2024-03-07T12:49:43;8.90;99.90
17728;DHT22;8984;49.268;12.302;2024-03-07T12:52:16;8.80;99.90
17728;DHT22;8984;49.268;12.302;2024-03-07T12:54:48;8.50;99.90
17728;DHT22;8984;49.268;12.302;2024-03-07T12:57:26;8.50;99.90
17728;DHT22;8984;49.268;12.302;2024-03-07T12:59:54;8.60;99.90
17728;DHT22;8984;49.268;12.302;2024-03-07T13:02:22;8.60;99.90
17728;DHT22;8984;49.268;12.302;2024-03-07T13:04:53;8.50;99.90
17728;DHT22;8984;49.268;12.302;2024-03-07T13:07:25;8.50;99.90
17728;DHT22;8984;49.268;12.302;2024-03-07T13:09:53;8.50;99.90
17728;DHT22;8984;49.268;12.302;2024-03-07T13:12:23;8.60;99.90
17728;DHT22;8984;49.268;12.302;2024-03-07T13:14:55;8.50;99.90
17728;DHT22;8984;49.268;12.302;2024-03-07T13:17:25;8.30;99.90
17728;DHT22;8984;49.268;12.302;2024-03-07T13:19:54;8.30;99.90
17728;DHT22;8984;49.268;12.302;2024-03-07T13:22:27;8.30;99.90
17728;DHT22;8984;49.268;12.302;2024-03-07T13:24:56;8.20;99.90
17728;DHT22;8984;49.268;12.302;2024-03-07T13:27:31;8.20;99.90
17728;DHT22;8984;49.268;12.302;2024-03-07T13:30:01;8.10;99.90
17728;DHT22;8984;49.268;12.302;2024-03-07T13:32:33;8.20;99.90
17728;DHT22;8984;49.268;12.302;2024-03-07T13:35:01;8.10;99.90
17728;DHT22;8984;49.268;12.302;2024-03-07T13:37:28;8.20;99.90
17728;DHT22;8984;49.268;12.302;2024-03-07T13:39:59;8.30;99.90
17728;DHT22;8984;49.268;12.302;2024-03-07T13:42:52;8.20;99.90
17728;DHT22;8984;49.268;12.302;2024-03-07T13:45:28;8.30;99.90
17728;DHT22;8984;49.268;12.302;2024-03-07T13:48:06;8.20;99.90
17728;DHT22;8984;49.268;12.302;2024-03-07T13:50:43;8.20;99.90
17728;DHT22;8984;49.268;12.302;2024-03-07T13:53:11;8.40;99.90
17728;DHT22;8984;49.268;12.302;2024-03-07T13:55:53;8.30;99.90
17728;DHT22;8984;49.268;12.302;2024-03-07T13:58:48;8.30;99.90
17728;DHT22;8984;49.268;12.302;2024-03-07T14:01:30;8.30;99.90
17728;DHT22;8984;49.268;12.302;2024-03-07T14:04:28;8.20;99.90
17728;DHT22;8984;49.268;12.302;2024-03-07T14:07:15;8.10;99.90
17728;DHT22;8984;49.268;12.302;2024-03-07T14:09:56;8.30;99.90
17728;DHT22;8984;49.268;12.302;2024-03-07T14:12:44;8.20;99.90
17728;DHT22;8984;49.268;12.302;2024-03-07T14:19:09;8.20;99.90
17728;DHT22;8984;49.268;12.302;2024-03-07T14:22:14;8.30;99.90
17728;DHT22;8984;49.268;12.302;2024-03-07T14:25:17;8.20;99.90
17728;DHT22;8984;49.268;12.302;2024-03-07T14:27:58;8.20;99.90
17728;DHT22;8984;49.268;12.302;2024-03-07T14:30:43;8.10;99.90
17728;DHT22;8984;49.268;12.302;2024-03-07T14:33:20;8.20;99.90
17728;DHT22;8984;49.268;12.302;2024-03-07T14:36:02;8.20;99.90
17728;DHT22;8984;49.268;12.302;2024-03-07T14:38:49;8.20;99.90
17728;DHT22;8984;49.268;12.302;2024-03-07T14:41:24;8.20;99.90
17728;DHT22;8984;49.268;12.302;2024-03-07T14:44:10;8.20;99.90
17728;DHT22;8984;49.268;12.302;2024-03-07T14:46:39;8.20;99.90
17728;DHT22;8984;49.268;12.302;2024-03-07T14:49:07;8.10;99.90
17728;DHT22;8984;49.268;12.302;2024-03-07T14:51:34;8.20;99.90
17728;DHT22;8984;49.268;12.302;2024-03-07T14:54:05;8.20;99.90
17728;DHT22;8984;49.268;12.302;2024-03-07T14:56:34;8.00;99.90
17728;DHT22;8984;49.268;12.302;2024-03-07T14:59:06;7.90;99.90
17728;DHT22;8984;49.268;12.302;2024-03-07T15:01:34;7.90;99.90
17728;DHT22;8984;49.268;12.302;2024-03-07T15:04:04;8.00;99.90
17728;DHT22;8984;49.268;12.302;2024-03-07T15:06:37;8.10;99.90
17728;DHT22;8984;49.268;12.302;2024-03-07T15:09:06;8.00;99.90
17728;DHT22;8984;49.268;12.302;2024-03-07T15:11:37;8.00;99.90
17728;DHT22;8984;49.268;12.302;2024-03-07T15:14:05;8.00;99.90
17728;DHT22;8984;49.268;12.302;2024-03-07T15:16:39;8.20;99.90
17728;DHT22;8984;49.268;12.302;2024-03-07T15:19:11;8.30;99.90
17728;DHT22;8984;49.268;12.302;2024-03-07T15:21:39;8.30;99.90
17728;DHT22;8984;49.268;12.302;2024-03-07T15:24:07;8.40;99.90
17728;DHT22;8984;49.268;12.302;2024-03-07T15:26:40;8.30;99.90
17728;DHT22;8984;49.268;12.302;2024-03-07T15:29:09;8.00;99.90
17728;DHT22;8984;49.268;12.302;2024-03-07T15:31:39;8.10;99.90
17728;DHT22;8984;49.268;12.302;2024-03-07T15:34:08;8.20;99.90
17728;DHT22;8984;49.268;12.302;2024-03-07T15:36:42;8.30;99.90
17728;DHT22;8984;49.268;12.302;2024-03-07T15:39:12;8.10;99.90
17728;DHT22;8984;49.268;12.302;2024-03-07T15:41:56;8.00;99.90
17728;DHT22;8984;49.268;12.302;2024-03-07T15:44:30;8.00;99.90
17728;DHT22;8984;49.268;12.302;2024-03-07T15:46:58;8.00;99.90
17728;DHT22;8984;49.268;12.302;2024-03-07T15:49:38;8.00;99.90
17728;DHT22;8984;49.268;12.302;2024-03-07T15:54:50;7.80;99.90
17728;DHT22;8984;49.268;12.302;2024-03-07T15:57:21;7.70;99.90
17728;DHT22;8984;49.268;12.302;2024-03-07T15:59:59;7.60;99.90
17728;DHT22;8984;49.268;12.302;2024-03-07T16:02:32;7.70;99.90
17728;DHT22;8984;49.268;12.302;2024-03-07T16:05:09;7.80;99.90
17728;DHT22;8984;49.268;12.302;2024-03-07T16:07:42;7.70;99.90
17728;DHT22;8984;49.268;12.302;2024-03-07T16:10:10;7.70;99.90
17728;DHT22;8984;49.268;12.302;2024-03-07T16:12:42;7.80;99.90
17728;DHT22;8984;49.268;12.302;2024-03-07T16:15:10;7.50;99.90
17728;DHT22;8984;49.268;12.302;2024-03-07T16:17:39;7.60;99.90
17728;DHT22;8984;49.268;12.302;2024-03-07T16:20:32;7.50;99.90
17728;DHT22;8984;49.268;12.302;2024-03-07T16:23:03;7.50;99.90
17728;DHT22;8984;49.268;12.302;2024-03-07T16:25:39;7.50;99.90
17728;DHT22;8984;49.268;12.302;2024-03-07T16:28:09;7.60;99.90
17728;DHT22;8984;49.268;12.302;2024-03-07T16:30:39;7.60;99.90
17728;DHT22;8984;49.268;12.302;2024-03-07T16:33:11;7.50;99.90
17728;DHT22;8984;49.268;12.302;2024-03-07T16:35:45;7.40;99.90